Time;durP1;ratioP1;P1;durP2;ratioP2;P2;SDS_P1;SDS_P2;PMS_P1;PMS_P2;Temp;Humidity;BMP_temperature;BMP_pressure;BME280_temperature;BME280_humidity;BME280_pressure;Samples;Min_cycle;Max_cycle;Signal;HPM_P1;HPM_P2
2022/05/22 00:01:26;;;;;;;3.83;1.50;;;;;;;23.58;52.46;100477.50;4990275;28;20315;-77
2022/05/22 00:03:52;;;;;;;2.57;1.50;;;;;;;23.57;52.45;100473.78;4991318;28;20947;-74
2022/05/22 00:06:17;;;;;;;6.30;1.73;;;;;;;23.57;52.25;100473.78;4989995;28;20478;-77
2022/05/22 00:08:43;;;;;;;4.03;1.80;;;;;;;23.57;52.66;100470.06;4990767;28;20189;-74
2022/05/22 00:11:08;;;;;;;2.70;1.27;;;;;;;23.57;52.71;100464.31;4991084;28;20188;-76
2022/05/22 00:13:34;;;;;;;2.80;1.40;;;;;;;23.56;52.50;100469.25;4990586;28;20178;-74
2022/05/22 00:18:43;;;;;;;3.43;1.40;;;;;;;23.54;52.53;100465.94;4960934;28;20192;-76
2022/05/22 00:21:09;;;;;;;2.97;1.40;;;;;;;23.53;52.51;100464.31;4972578;28;21100;-76
2022/05/22 00:23:34;;;;;;;4.27;1.70;;;;;;;23.54;52.38;100459.38;4999460;28;20208;-74
2022/05/22 00:26:00;;;;;;;4.27;1.77;;;;;;;23.53;51.89;100464.31;4959751;28;20228;-76
2022/05/22 00:28:25;;;;;;;4.27;1.53;;;;;;;23.54;52.38;100463.06;4975053;28;20187;-74
2022/05/22 00:30:51;;;;;;;2.30;1.40;;;;;;;23.53;52.39;100451.97;4995129;28;20637;-76
2022/05/22 00:33:16;;;;;;;2.10;1.20;;;;;;;23.52;52.38;100454.03;4995694;28;20181;-77
2022/05/22 00:35:42;;;;;;;3.67;1.70;;;;;;;23.53;52.25;100455.66;4963406;28;20177;-76
2022/05/22 00:38:07;;;;;;;2.97;1.50;;;;;;;23.53;52.74;100457.75;5012900;28;20240;-73
2022/05/22 00:40:33;;;;;;;3.43;1.70;;;;;;;23.52;52.64;100456.91;4979098;28;20610;-76
2022/05/22 00:42:58;;;;;;;2.20;1.40;;;;;;;23.52;52.18;100461.81;4979205;28;20336;-76
2022/05/22 00:45:24;;;;;;;4.13;1.70;;;;;;;23.52;52.39;100467.59;4995539;28;20185;-77
2022/05/22 00:47:51;;;;;;;4.27;1.80;;;;;;;23.51;52.35;100460.19;5012962;28;20181;-75
2022/05/22 00:50:17;;;;;;;2.57;1.30;;;;;;;23.49;51.99;100460.59;5012906;28;20173;-76
2022/05/22 00:52:45;;;;;;;2.80;1.37;;;;;;;23.49;52.47;100446.19;5011645;28;20783;-77
2022/05/22 00:55:12;;;;;;;3.70;2.07;;;;;;;23.50;52.32;100444.97;4979434;28;20428;-76
2022/05/22 00:57:43;;;;;;;2.60;1.30;;;;;;;23.49;52.34;100440.41;4995615;28;20432;-77
2022/05/22 01:00:12;;;;;;;2.93;1.53;;;;;;;23.49;52.56;100439.63;4995414;28;20822;-76
2022/05/22 01:05:21;;;;;;;2.70;1.57;;;;;;;23.48;52.63;100456.06;4997257;28;20482;-76
2022/05/22 01:07:47;;;;;;;3.47;1.60;;;;;;;23.48;52.43;100456.06;4978734;28;20448;-76
2022/05/22 01:10:12;;;;;;;2.80;1.50;;;;;;;23.48;52.42;100455.25;4962357;28;20659;-75
2022/05/22 01:12:38;;;;;;;4.73;1.90;;;;;;;23.46;52.23;100449.06;4959035;28;20201;-77
2022/05/22 01:15:04;;;;;;;3.13;1.90;;;;;;;23.47;52.57;100447.81;4974033;28;20181;-76
2022/05/22 01:17:31;;;;;;;3.50;1.47;;;;;;;23.47;52.15;100447.81;4987234;28;20891;-76
2022/05/22 01:19:58;;;;;;;2.33;1.43;;;;;;;23.47;52.47;100454.44;4957310;28;20472;-75
2022/05/22 01:22:23;;;;;;;3.07;1.50;;;;;;;23.45;52.46;100454.03;4957638;28;20425;-76
2022/05/22 01:24:49;;;;;;;2.60;1.50;;;;;;;23.46;52.10;100454.84;4972669;28;20452;-74
2022/05/22 01:27:15;;;;;;;3.13;1.60;;;;;;;23.45;52.48;100454.03;4956529;28;20640;-74
2022/05/22 01:29:40;;;;;;;3.93;1.50;;;;;;;23.45;52.15;100456.91;4957745;28;20176;-76
2022/05/22 01:32:06;;;;;;;2.60;1.20;;;;;;;23.44;52.14;100443.72;4991250;28;20421;-76
2022/05/22 01:34:32;;;;;;;3.40;1.33;;;;;;;23.44;52.19;100442.91;4973420;28;20240;-75
2022/05/22 01:36:57;;;;;;;2.53;1.20;;;;;;;23.43;52.30;100436.31;4991508;28;20184;-74
2022/05/22 01:39:22;;;;;;;3.47;1.50;;;;;;;23.42;52.13;100451.13;4958308;28;20185;-76
2022/05/22 01:41:48;;;;;;;2.13;1.30;;;;;;;23.42;52.33;100454.84;4969156;28;20173;-74
2022/05/22 01:44:13;;;;;;;1.80;1.10;;;;;;;23.42;52.31;100446.19;4962411;28;20189;-76
2022/05/22 01:46:39;;;;;;;4.00;1.50;;;;;;;23.43;52.33;100441.25;4994766;28;20173;-74
2022/05/22 01:49:04;;;;;;;3.70;1.57;;;;;;;23.41;52.38;100433.03;4977478;28;20185;-74
2022/05/22 01:51:33;;;;;;;2.53;1.30;;;;;;;23.42;52.32;100445.34;4977442;28;20173;-74
2022/05/22 01:54:01;;;;;;;3.53;1.20;;;;;;;23.41;52.23;100437.94;4977638;28;20192;-76
2022/05/22 01:56:28;;;;;;;2.67;1.43;;;;;;;23.38;52.10;100428.06;4994286;28;20953;-77
2022/05/22 01:58:53;;;;;;;3.03;1.60;;;;;;;23.38;52.01;100430.94;4961498;28;20439;-75
2022/05/22 02:01:19;;;;;;;3.23;1.20;;;;;;;23.37;52.31;100414.91;4993937;28;20471;-76
2022/05/22 02:03:44;;;;;;;2.40;1.23;;;;;;;23.37;52.15;100420.66;4993205;28;20208;-74
2022/05/22 02:06:09;;;;;;;3.70;1.50;;;;;;;23.38;52.39;100409.97;4978622;28;20240;-77
2022/05/22 02:08:38;;;;;;;3.00;1.67;;;;;;;23.37;52.25;100403.38;4962382;28;20181;-75
2022/05/22 02:11:04;;;;;;;2.80;1.47;;;;;;;23.37;52.24;100402.53;4977646;28;20249;-74
2022/05/22 02:13:37;;;;;;;2.10;1.30;;;;;;;23.37;52.16;100396.78;4977605;28;20482;-76
2022/05/22 02:16:03;;;;;;;3.33;1.90;;;;;;;23.37;52.44;100408.31;4978289;28;20946;-74
2022/05/22 02:18:28;;;;;;;2.37;1.13;;;;;;;23.36;52.49;100413.25;4991084;28;20432;-76
2022/05/22 02:20:54;;;;;;;2.20;1.30;;;;;;;23.36;52.11;100407.50;4977234;28;20205;-74
2022/05/22 02:23:20;;;;;;;2.90;1.60;;;;;;;23.36;52.55;100398.84;4977445;28;20696;-75
2022/05/22 02:25:49;;;;;;;2.97;1.20;;;;;;;23.35;52.11;100394.34;4977784;28;20177;-76
2022/05/22 02:28:17;;;;;;;2.43;1.50;;;;;;;23.35;52.18;100397.22;4977647;28;20478;-78
2022/05/22 02:30:45;;;;;;;4.10;1.80;;;;;;;23.35;52.21;100393.50;4993450;28;20446;-74
2022/05/22 02:33:10;;;;;;;3.50;1.50;;;;;;;23.34;52.13;100395.53;4962886;28;20463;-77
2022/05/22 02:35:36;;;;;;;3.43;1.27;;;;;;;23.34;52.17;100392.66;4975502;28;20432;-77
2022/05/22 02:38:02;;;;;;;2.70;1.23;;;;;;;23.35;52.66;100393.50;5007880;28;20192;-78
2022/05/22 02:40:28;;;;;;;3.13;1.60;;;;;;;23.33;51.99;100391.03;4990348;28;20448;-76
2022/05/22 02:42:54;;;;;;;2.87;1.40;;;;;;;23.33;52.31;100390.22;4958987;28;20200;-76
2022/05/22 02:45:22;;;;;;;2.90;1.80;;;;;;;23.32;52.44;100383.63;4975289;28;20994;-77
2022/05/22 02:47:47;;;;;;;3.10;1.60;;;;;;;23.31;51.96;100384.88;4975850;28;20415;-76
2022/05/22 02:50:14;;;;;;;2.70;1.57;;;;;;;23.30;52.33;100386.09;4974779;28;20420;-76
2022/05/22 02:52:39;;;;;;;5.20;1.17;;;;;;;23.31;52.55;100384.03;4960157;28;20267;-76
2022/05/22 02:55:05;;;;;;;2.33;1.30;;;;;;;23.30;52.22;100380.34;4976852;28;20431;-76
2022/05/22 02:57:37;;;;;;;2.20;1.30;;;;;;;23.30;52.05;100374.56;4977149;28;20177;-75
2022/05/22 03:00:05;;;;;;;1.80;1.13;;;;;;;23.29;52.65;100390.19;5009980;28;21019;-76
2022/05/22 03:02:30;;;;;;;2.57;1.13;;;;;;;23.29;51.81;100384.44;4960559;28;20420;-74
2022/05/22 03:04:56;;;;;;;2.33;1.37;;;;;;;23.29;51.98;100383.63;4992831;28;20483;-75
2022/05/22 03:07:21;;;;;;;3.10;1.70;;;;;;;23.28;52.30;100385.66;4976619;28;20207;-76
2022/05/22 03:09:47;;;;;;;2.93;2.23;;;;;;;23.29;52.42;100383.63;4976461;28;20623;-74
2022/05/22 03:12:17;;;;;;;2.40;1.43;;;;;;;23.28;52.29;100377.03;4976300;28;20189;-77
2022/05/22 03:14:45;;;;;;;2.70;1.37;;;;;;;23.28;52.47;100388.56;4960882;28;20177;-77
2022/05/22 03:17:10;;;;;;;2.57;1.60;;;;;;;23.28;51.98;100376.22;4999813;28;20834;-75
2022/05/22 03:19:36;;;;;;;3.57;1.53;;;;;;;23.27;52.04;100358.09;5010471;28;20430;-76
2022/05/22 03:22:03;;;;;;;3.50;1.50;;;;;;;23.26;52.37;100372.91;4994608;28;20625;-77
2022/05/22 03:24:28;;;;;;;2.27;1.20;;;;;;;23.26;51.93;100372.91;4994352;28;20415;-76
2022/05/22 03:26:54;;;;;;;2.50;1.60;;;;;;;23.26;52.36;100365.09;5010861;28;20427;-76
2022/05/22 03:29:19;;;;;;;2.33;1.47;;;;;;;23.25;52.02;100353.97;4993832;28;20199;-78
2022/05/22 03:31:45;;;;;;;2.67;1.40;;;;;;;23.25;52.12;100342.47;5011783;28;20165;-75
2022/05/22 03:34:10;;;;;;;3.07;1.50;;;;;;;23.24;52.41;100347.38;5012284;28;20176;-75
2022/05/22 03:36:41;;;;;;;2.03;1.40;;;;;;;23.23;52.01;100334.22;5011879;28;20184;-76
2022/05/22 03:39:07;;;;;;;4.30;1.50;;;;;;;23.24;51.94;100343.69;5012717;28;20524;-76
2022/05/22 03:41:34;;;;;;;3.40;1.10;;;;;;;23.23;52.24;100356.47;5006444;28;20464;-74
2022/05/22 03:43:59;;;;;;;2.27;1.20;;;;;;;23.23;52.49;100362.22;4992537;28;20176;-76
2022/05/22 03:46:25;;;;;;;2.40;1.30;;;;;;;23.22;52.45;100372.09;4975837;28;20424;-74
2022/05/22 03:48:50;;;;;;;2.47;1.50;;;;;;;23.21;51.97;100376.19;5009289;28;20180;-77
2022/05/22 03:51:16;;;;;;;2.33;1.23;;;;;;;23.21;52.28;100370.44;4975784;28;20176;-74
2022/05/22 03:53:41;;;;;;;3.17;1.37;;;;;;;23.19;51.92;100358.53;4974747;28;20161;-74
2022/05/22 03:56:11;;;;;;;2.57;1.27;;;;;;;23.20;52.19;100363.03;5006150;28;20173;-75
2022/05/22 03:58:37;;;;;;;2.50;1.60;;;;;;;23.19;51.97;100355.63;4973714;28;20173;-75
2022/05/22 04:01:02;;;;;;;2.80;1.53;;;;;;;23.19;51.79;100349.88;4957587;28;20496;-74
2022/05/22 04:03:27;;;;;;;4.10;2.03;;;;;;;23.19;52.11;100350.69;4989841;28;20629;-75
2022/05/22 04:05:53;;;;;;;2.10;1.30;;;;;;;23.18;51.66;100334.63;5010936;28;20224;-76
2022/05/22 04:08:19;;;;;;;3.33;1.70;;;;;;;23.19;51.94;100336.28;4976794;28;20674;-77
2022/05/22 04:10:44;;;;;;;2.97;1.50;;;;;;;23.18;52.33;100337.53;4993815;28;20158;-73
2022/05/22 04:13:09;;;;;;;2.37;1.17;;;;;;;23.18;51.63;100326.00;4978041;28;20211;-75
2022/05/22 04:15:35;;;;;;;2.57;1.30;;;;;;;23.18;51.55;100319.44;4977565;28;20551;-75
2022/05/22 04:18:00;;;;;;;3.30;1.30;;;;;;;23.18;51.61;100328.06;4994401;28;20180;-74
2022/05/22 04:20:26;;;;;;;3.10;1.30;;;;;;;23.17;51.81;100314.84;4982311;28;20242;-78
2022/05/22 04:25:35;;;;;;;3.50;1.20;;;;;;;23.16;51.93;100318.97;5018154;28;20555;-76
2022/05/22 04:28:01;;;;;;;2.57;1.70;;;;;;;23.15;51.93;100309.53;5015370;28;20411;-76
2022/05/22 04:30:26;;;;;;;2.83;1.30;;;;;;;23.16;52.18;100316.09;4998670;28;20169;-76
2022/05/22 04:32:52;;;;;;;4.83;1.33;;;;;;;23.17;51.89;100317.72;4971017;28;20173;-75
2022/05/22 04:35:18;;;;;;;2.97;1.60;;;;;;;23.17;51.94;100311.97;4978906;28;20187;-74
2022/05/22 04:37:44;;;;;;;3.40;2.00;;;;;;;23.19;51.81;100318.19;4979585;28;20566;-74
2022/05/22 04:40:10;;;;;;;2.87;1.50;;;;;;;23.19;51.72;100307.47;4979157;28;20454;-76
2022/05/22 04:42:35;;;;;;;3.20;1.53;;;;;;;23.19;51.90;100313.22;4979246;28;20235;-77
2022/05/22 04:45:02;;;;;;;1.90;1.20;;;;;;;23.20;52.19;100312.03;4995420;28;20456;-76
2022/05/22 04:47:27;;;;;;;2.63;1.40;;;;;;;23.22;51.71;100308.72;4963050;28;20177;-76
2022/05/22 04:49:53;;;;;;;3.00;1.43;;;;;;;23.22;51.43;100315.31;4978806;28;20435;-78
2022/05/22 04:52:19;;;;;;;3.83;1.20;;;;;;;23.23;51.37;100313.25;5012993;28;20251;-75
2022/05/22 04:54:47;;;;;;;3.43;1.60;;;;;;;23.24;51.34;100309.94;4978992;28;20415;-76
2022/05/22 04:57:12;;;;;;;2.90;1.37;;;;;;;23.26;51.60;100306.66;4995499;28;20177;-74
2022/05/22 04:59:37;;;;;;;3.20;1.43;;;;;;;23.26;51.68;100306.66;4978980;28;20478;-75
2022/05/22 05:02:03;;;;;;;6.80;1.23;;;;;;;23.27;51.54;100312.00;4962889;28;20177;-76
2022/05/22 05:04:29;;;;;;;2.70;1.43;;;;;;;23.28;51.40;100312.84;4978647;28;20228;-76
2022/05/22 05:06:54;;;;;;;1.70;1.10;;;;;;;23.26;51.47;100319.00;4995239;28;20180;-76
2022/05/22 05:09:21;;;;;;;3.40;1.60;;;;;;;23.25;51.43;100307.91;4978775;28;20185;-76
2022/05/22 05:11:47;;;;;;;2.40;1.30;;;;;;;23.24;51.54;100309.13;4959828;28;20296;-77
2022/05/22 05:14:12;;;;;;;2.63;1.50;;;;;;;23.22;51.60;100312.41;4975625;28;20499;-76
2022/05/22 05:16:37;;;;;;;6.87;1.30;;;;;;;23.22;51.88;100300.06;4983230;28;20231;-76
2022/05/22 05:19:03;;;;;;;2.07;1.10;;;;;;;23.20;52.02;100305.44;4997709;28;20172;-76
2022/05/22 05:21:28;;;;;;;2.20;1.10;;;;;;;23.19;52.07;100303.78;5014504;28;20195;-74
2022/05/22 05:23:55;;;;;;;4.03;1.40;;;;;;;23.18;51.69;100302.94;5032237;28;20541;-78
2022/05/22 05:26:22;;;;;;;3.00;1.50;;;;;;;23.19;52.08;100307.47;4982230;28;20184;-74
2022/05/22 05:28:47;;;;;;;2.40;1.20;;;;;;;23.18;51.94;100305.03;4998114;28;20427;-76
2022/05/22 05:31:13;;;;;;;2.40;1.20;;;;;;;23.20;51.99;100314.06;5014003;28;20454;-76
2022/05/22 05:33:38;;;;;;;2.67;1.23;;;;;;;23.20;52.18;100314.91;4982001;28;20184;-76
2022/05/22 05:36:08;;;;;;;3.27;1.20;;;;;;;23.21;51.61;100312.81;4997563;28;20180;-74
2022/05/22 05:38:33;;;;;;;4.10;1.60;;;;;;;23.21;51.40;100319.44;4981282;28;20173;-76
2022/05/22 05:40:59;;;;;;;2.17;1.07;;;;;;;23.20;52.26;100314.91;4994063;28;20460;-74
2022/05/22 05:43:24;;;;;;;2.50;1.33;;;;;;;23.20;51.66;100311.19;4962007;28;20189;-74
2022/05/22 05:45:50;;;;;;;6.20;1.60;;;;;;;23.18;51.84;100313.66;5011974;28;20543;-74
2022/05/22 05:48:17;;;;;;;2.73;1.30;;;;;;;23.17;52.30;100317.72;4993908;28;20176;-74
2022/05/22 05:50:42;;;;;;;2.97;1.33;;;;;;;23.15;52.12;100321.03;4978213;28;20403;-74
2022/05/22 05:53:08;;;;;;;2.37;1.30;;;;;;;23.15;52.40;100321.03;4978371;28;20416;-76
2022/05/22 05:55:33;;;;;;;2.80;1.30;;;;;;;23.15;52.47;100332.56;4961464;28;20177;-77
2022/05/22 05:58:00;;;;;;;2.47;1.50;;;;;;;23.15;52.52;100325.97;4978220;28;20177;-76
2022/05/22 06:00:25;;;;;;;2.37;1.50;;;;;;;23.14;52.08;100319.38;4994358;28;20633;-77
2022/05/22 06:02:51;;;;;;;2.53;1.47;;;;;;;23.15;52.31;100320.22;4962147;28;20448;-78
2022/05/22 06:05:17;;;;;;;2.00;1.10;;;;;;;23.15;52.39;100317.34;4993699;28;20244;-76
2022/05/22 06:07:42;;;;;;;3.10;1.70;;;;;;;23.13;52.00;100314.84;4994121;28;20502;-74
2022/05/22 06:10:09;;;;;;;3.20;1.50;;;;;;;23.16;52.03;100316.09;4976967;28;20184;-78
2022/05/22 06:12:35;;;;;;;2.30;1.33;;;;;;;23.16;52.01;100316.94;4977454;28;20185;-74
2022/05/22 06:15:00;;;;;;;2.50;1.20;;;;;;;23.17;52.30;100318.56;4961596;28;20431;-75
2022/05/22 06:17:33;;;;;;;4.33;1.70;;;;;;;23.17;52.27;100314.84;5021443;28;20267;-74
2022/05/22 06:19:59;;;;;;;2.83;1.30;;;;;;;23.16;52.15;100313.22;4980443;28;20192;-78
2022/05/22 06:22:26;;;;;;;2.63;1.30;;;;;;;23.16;52.05;100321.84;4997095;28;20406;-76
2022/05/22 06:24:52;;;;;;;2.23;1.20;;;;;;;23.15;51.95;100312.41;4996305;28;20184;-78
2022/05/22 06:27:18;;;;;;;6.00;1.50;;;;;;;23.14;52.25;100322.25;4978392;28;20479;-76
2022/05/22 06:29:44;;;;;;;3.20;1.10;;;;;;;23.15;51.82;100323.09;4979212;28;20703;-76
2022/05/22 06:32:14;;;;;;;1.80;1.00;;;;;;;23.14;52.17;100328.03;5012542;28;20480;-73
2022/05/22 06:34:42;;;;;;;3.20;1.40;;;;;;;23.14;52.17;100327.22;4996613;28;20176;-74
2022/05/22 06:37:09;;;;;;;2.10;1.03;;;;;;;23.14;52.15;100328.03;5013090;28;20440;-75
2022/05/22 06:39:51;;;;;;;2.63;1.30;;;;;;;23.14;51.86;100324.34;5012003;28;20423;-76
2022/05/22 06:42:25;;;;;;;2.20;1.27;;;;;;;23.13;52.18;100326.38;4982328;28;20432;-76
2022/05/22 06:44:52;;;;;;;2.17;1.17;;;;;;;23.13;52.12;100326.38;4961260;28;20452;-74
2022/05/22 06:47:17;;;;;;;3.87;1.30;;;;;;;23.13;52.14;100328.44;4977023;28;20424;-76
2022/05/22 06:49:43;;;;;;;2.97;1.43;;;;;;;23.13;52.39;100331.34;4976984;28;20420;-78
2022/05/22 06:52:08;;;;;;;2.27;1.33;;;;;;;23.12;52.26;100324.75;4977286;28;20200;-74
2022/05/22 06:54:34;;;;;;;2.17;1.47;;;;;;;23.13;51.95;100317.75;4976892;28;20268;-74
2022/05/22 06:57:00;;;;;;;4.10;1.60;;;;;;;23.12;52.15;100313.22;4977152;28;20203;-74
2022/05/22 06:59:28;;;;;;;3.17;1.20;;;;;;;23.13;52.33;100305.41;4960281;28;20234;-76
2022/05/22 07:01:54;;;;;;;3.30;1.50;;;;;;;23.12;52.31;100307.47;4977236;28;20196;-74
2022/05/22 07:04:22;;;;;;;2.50;1.47;;;;;;;23.12;52.20;100301.69;4976429;28;20958;-77
2022/05/22 07:06:48;;;;;;;3.00;1.50;;;;;;;23.11;52.13;100297.19;4993449;28;20260;-76
2022/05/22 07:09:17;;;;;;;2.20;1.30;;;;;;;23.12;52.26;100303.75;4976440;28;20491;-77
2022/05/22 07:11:43;;;;;;;2.30;1.40;;;;;;;23.11;52.65;100310.75;4977102;28;20419;-77
2022/05/22 07:14:10;;;;;;;2.30;1.30;;;;;;;23.11;52.40;100302.94;4960909;28;20427;-74
2022/05/22 07:16:36;;;;;;;2.40;1.43;;;;;;;23.10;52.29;100300.47;4980151;28;20431;-76
2022/05/22 07:19:05;;;;;;;2.70;1.50;;;;;;;23.09;52.69;100299.63;4996219;28;20427;-77
2022/05/22 07:21:31;;;;;;;3.07;1.40;;;;;;;23.09;52.45;100304.59;5012981;28;20824;-76
2022/05/22 07:23:59;;;;;;;2.10;1.20;;;;;;;23.10;52.40;100307.06;5012067;28;20518;-74
2022/05/22 07:26:26;;;;;;;4.40;1.33;;;;;;;23.10;52.28;100301.31;4996565;28;20180;-77
2022/05/22 07:28:51;;;;;;;2.47;1.37;;;;;;;23.10;52.52;100297.59;4995631;28;20489;-76
2022/05/22 07:31:19;;;;;;;3.30;1.20;;;;;;;23.09;52.38;100299.63;5029762;28;20415;-77
2022/05/22 07:33:45;;;;;;;2.80;1.33;;;;;;;23.08;52.82;100292.22;4996185;28;20176;-77
2022/05/22 07:36:10;;;;;;;3.70;1.70;;;;;;;23.08;52.39;100295.09;4995778;28;20521;-74
2022/05/22 07:38:36;;;;;;;2.60;1.40;;;;;;;23.08;52.52;100286.47;4995245;28;20211;-76
2022/05/22 07:41:01;;;;;;;2.87;1.47;;;;;;;23.08;52.42;100274.94;5010781;28;20208;-76
2022/05/22 07:43:27;;;;;;;4.37;1.60;;;;;;;23.08;52.28;100277.81;4975762;28;20175;-75
2022/05/22 07:45:53;;;;;;;3.10;1.40;;;;;;;23.08;52.73;100274.94;4976125;28;20173;-77
2022/05/22 07:48:19;;;;;;;2.50;1.30;;;;;;;23.09;52.84;100278.66;4957747;28;20611;-77
2022/05/22 07:50:45;;;;;;;3.83;1.50;;;;;;;23.07;52.84;100267.56;5007882;28;20419;-74
2022/05/22 07:53:10;;;;;;;3.50;1.50;;;;;;;23.09;52.98;100270.03;4974756;28;21121;-74
2022/05/22 07:55:36;;;;;;;3.13;1.50;;;;;;;23.08;52.96;100274.94;4958557;28;20177;-76
2022/05/22 07:58:01;;;;;;;2.40;1.40;;;;;;;23.08;52.79;100274.16;4990372;28;20414;-76
2022/05/22 08:00:27;;;;;;;3.40;1.70;;;;;;;23.08;52.62;100272.06;5008219;28;20211;-74
2022/05/22 08:02:52;;;;;;;3.17;1.60;;;;;;;23.07;52.90;100273.31;4975275;28;20193;-76
2022/05/22 08:05:19;;;;;;;4.33;1.90;;;;;;;23.06;52.91;100271.66;5008219;28;20336;-76
2022/05/22 08:07:44;;;;;;;4.23;1.97;;;;;;;23.05;52.67;100267.16;4974499;28;20248;-74
2022/05/22 08:10:11;;;;;;;4.23;1.70;;;;;;;23.06;53.22;100274.56;4958402;28;20975;-74
2022/05/22 08:12:40;;;;;;;2.70;1.67;;;;;;;23.05;53.03;100264.28;4957829;28;20573;-74
2022/05/22 08:15:07;;;;;;;2.67;1.47;;;;;;;23.05;53.05;100267.16;4974302;28;20482;-76
2022/05/22 08:17:36;;;;;;;2.47;1.40;;;;;;;23.07;52.91;100266.72;4974171;28;20533;-75
2022/05/22 08:20:09;;;;;;;3.17;1.50;;;;;;;23.07;52.74;100260.94;4991906;28;20478;-76
2022/05/22 08:22:34;;;;;;;4.30;1.70;;;;;;;23.08;52.28;100265.50;4976770;28;20436;-76
2022/05/22 08:25:00;;;;;;;2.33;1.40;;;;;;;23.08;52.84;100268.38;4992690;28;20451;-74
2022/05/22 08:27:27;;;;;;;3.87;1.73;;;;;;;23.06;52.73;100263.03;4976276;28;20212;-75
2022/05/22 08:29:53;;;;;;;4.03;1.47;;;;;;;23.06;52.77;100260.16;4991711;28;20431;-74
2022/05/22 08:32:18;;;;;;;2.50;1.30;;;;;;;23.07;52.44;100250.28;4975659;28;20432;-76
2022/05/22 08:34:44;;;;;;;2.40;1.50;;;;;;;23.06;52.87;100245.75;5009737;28;20723;-78
2022/05/22 08:37:09;;;;;;;5.90;1.40;;;;;;;23.04;53.07;100239.59;4992523;28;20168;-76
2022/05/22 08:39:35;;;;;;;3.30;1.80;;;;;;;23.05;53.03;100237.53;4991599;28;20695;-75
2022/05/22 08:42:00;;;;;;;2.27;1.40;;;;;;;23.05;53.03;100234.63;5008954;28;20248;-76
2022/05/22 08:44:29;;;;;;;2.30;1.13;;;;;;;23.06;52.81;100228.47;4990536;28;20173;-78
2022/05/22 08:47:03;;;;;;;4.63;2.17;;;;;;;23.05;52.95;100238.34;4974840;28;20559;-76
2022/05/22 08:49:39;;;;;;;3.10;1.70;;;;;;;23.04;52.51;100230.97;4975660;28;20428;-75
2022/05/22 08:52:20;;;;;;;2.50;1.60;;;;;;;23.04;52.93;100230.13;4977982;28;20462;-75
2022/05/22 08:54:59;;;;;;;2.63;1.60;;;;;;;23.05;53.00;100223.13;4995997;28;20486;-76
2022/05/22 09:00:15;;;;;;;3.37;1.67;;;;;;;23.04;52.56;100216.56;4984385;28;20447;-74
2022/05/22 09:02:56;;;;;;;2.80;1.50;;;;;;;23.04;52.63;100222.31;4963115;28;20919;-74
2022/05/22 09:05:23;;;;;;;3.60;1.63;;;;;;;23.03;52.61;100209.13;4995358;28;20264;-75
2022/05/22 09:07:55;;;;;;;2.93;1.57;;;;;;;23.03;52.78;100212.00;4994859;28;20959;-76
2022/05/22 09:10:28;;;;;;;3.50;1.57;;;;;;;23.04;52.81;100213.69;4994928;28;20475;-76
2022/05/22 09:13:31;;;;;;;3.20;1.63;;;;;;;23.04;52.49;100204.19;4979776;28;21001;-74
2022/05/22 09:16:16;;;;;;;3.67;2.07;;;;;;;23.04;52.15;100196.41;4994822;28;20492;-74
2022/05/22 09:19:03;;;;;;;3.77;1.80;;;;;;;23.03;52.48;100191.84;4960425;28;20409;-76
2022/05/22 09:21:31;;;;;;;2.10;1.20;;;;;;;23.03;52.62;100193.94;4976728;28;20510;-76
2022/05/22 09:24:03;;;;;;;3.27;1.70;;;;;;;23.04;52.29;100189.81;4943531;28;20425;-74
2022/05/22 09:26:41;;;;;;;3.83;1.60;;;;;;;23.05;52.39;100194.31;4975639;28;20447;-74
2022/05/22 09:29:43;;;;;;;3.63;2.03;;;;;;;23.04;52.62;100182.00;4992670;28;20405;-74
2022/05/22 09:32:20;;;;;;;4.80;2.30;;;;;;;23.04;52.07;100176.25;4992118;28;20403;-78
2022/05/22 09:34:58;;;;;;;2.97;1.33;;;;;;;23.04;52.46;100178.28;4991417;28;20491;-75
2022/05/22 09:38:08;;;;;;;3.53;1.57;;;;;;;23.05;52.20;100168.41;4958551;28;20467;-74
2022/05/22 09:40:48;;;;;;;3.60;1.90;;;;;;;23.03;52.11;100160.16;4994664;28;20456;-77
2022/05/22 09:43:35;;;;;;;3.70;1.70;;;;;;;23.05;51.98;100160.59;4961515;28;20428;-77
2022/05/22 09:46:19;;;;;;;3.97;1.80;;;;;;;23.07;52.05;100160.16;4990643;28;20947;-74
2022/05/22 09:48:57;;;;;;;4.83;1.67;;;;;;;23.06;51.91;100156.47;4974628;28;20407;-75
2022/05/22 09:51:47;;;;;;;3.53;1.63;;;;;;;23.06;51.62;100159.34;4992726;28;20411;-76
2022/05/22 09:54:38;;;;;;;4.53;1.70;;;;;;;23.05;51.38;100157.72;4975432;28;20401;-76
2022/05/22 09:57:22;;;;;;;4.50;1.53;;;;;;;23.05;52.29;100151.97;4960843;28;20448;-76
2022/05/22 10:00:06;;;;;;;2.60;1.40;;;;;;;23.04;51.81;100153.19;4974161;28;20409;-76
2022/05/22 10:02:38;;;;;;;4.43;2.23;;;;;;;23.04;51.78;100143.72;4972517;28;20420;-76
2022/05/22 10:05:07;;;;;;;3.73;1.67;;;;;;;23.03;51.99;100145.78;4957576;28;20531;-76
2022/05/22 10:08:10;;;;;;;2.90;1.50;;;;;;;23.03;51.40;100131.38;4992495;28;20435;-74
2022/05/22 10:11:08;;;;;;;4.03;2.10;;;;;;;23.05;51.33;100131.81;4978027;28;20420;-76
2022/05/22 10:13:33;;;;;;;2.73;1.10;;;;;;;23.04;51.50;100124.41;4955992;28;20975;-76
2022/05/22 10:16:09;;;;;;;3.53;1.57;;;;;;;23.04;51.11;100115.75;4991995;28;20421;-76
2022/05/22 10:19:01;;;;;;;3.40;1.50;;;;;;;23.06;51.22;100116.16;4990419;28;20276;-76
2022/05/22 10:22:04;;;;;;;3.10;1.30;;;;;;;23.07;50.88;100114.09;4974486;28;20487;-74
2022/05/22 10:24:50;;;;;;;2.87;1.57;;;;;;;23.05;51.28;100097.25;4974182;28;20955;-77
2022/05/22 10:27:21;;;;;;;4.87;1.60;;;;;;;23.05;51.39;100100.13;4974428;28;20437;-76
2022/05/22 10:29:57;;;;;;;2.73;1.50;;;;;;;23.06;51.29;100096.00;4991476;28;20421;-76
2022/05/22 10:32:37;;;;;;;2.77;1.37;;;;;;;23.07;50.92;100088.16;4959050;28;20416;-77
2022/05/22 10:35:14;;;;;;;2.80;1.50;;;;;;;23.07;51.18;100080.34;4974804;28;20492;-76
2022/05/22 10:38:18;;;;;;;3.00;1.03;;;;;;;23.07;51.04;100082.41;4942017;28;20463;-76
2022/05/22 10:43:34;;;;;;;3.03;1.60;;;;;;;23.09;51.03;100077.88;4960140;28;20431;-76
2022/05/22 10:46:00;;;;;;;4.40;1.60;;;;;;;23.09;50.53;100071.31;4974076;28;20761;-77
2022/05/22 10:48:27;;;;;;;4.47;1.20;;;;;;;23.10;50.52;100070.06;4974303;28;20911;-74
2022/05/22 10:50:54;;;;;;;2.43;1.47;;;;;;;23.10;50.63;100056.50;4990512;28;20251;-77
2022/05/22 10:53:30;;;;;;;3.03;1.30;;;;;;;23.10;50.50;100056.50;4975229;28;20420;-76
2022/05/22 10:56:38;;;;;;;4.23;1.60;;;;;;;23.10;50.50;100062.25;4988922;28;20521;-75
2022/05/22 10:59:06;;;;;;;3.50;1.63;;;;;;;23.12;49.84;100061.81;4919275;28;20428;-76
2022/05/22 11:01:34;;;;;;;2.67;1.20;;;;;;;23.12;49.71;100056.88;4973594;28;21008;-74
2022/05/22 11:04:08;;;;;;;5.37;1.57;;;;;;;23.12;50.42;100068.41;4957387;28;20806;-76
2022/05/22 11:06:35;;;;;;;2.23;1.30;;;;;;;23.11;50.16;100055.25;4957649;28;20448;-76
2022/05/22 11:09:00;;;;;;;3.13;1.27;;;;;;;23.11;50.02;100057.28;4990718;28;20425;-76
2022/05/22 11:11:33;;;;;;;3.50;1.70;;;;;;;23.12;50.51;100056.88;4978210;28;20435;-74
2022/05/22 11:14:14;;;;;;;3.90;1.40;;;;;;;23.12;49.73;100047.41;4961457;28;20625;-77
2022/05/22 11:16:40;;;;;;;3.67;1.50;;;;;;;23.13;50.11;100049.88;4981263;28;20411;-76
2022/05/22 11:19:24;;;;;;;3.70;1.50;;;;;;;23.13;49.76;100035.47;5011636;28;20509;-77
2022/05/22 11:22:08;;;;;;;5.63;1.70;;;;;;;23.14;50.30;100044.94;4995816;28;20299;-76
2022/05/22 11:24:42;;;;;;;2.97;1.27;;;;;;;23.12;49.79;100039.59;5012726;28;20431;-78
2022/05/22 11:27:42;;;;;;;4.30;1.60;;;;;;;23.13;49.05;100052.75;4996297;28;20433;-77
2022/05/22 11:30:32;;;;;;;6.13;2.00;;;;;;;23.14;49.54;100051.50;5029706;28;20814;-74
2022/05/22 11:33:39;;;;;;;4.20;1.27;;;;;;;23.15;49.68;100049.47;5030686;28;20874;-76
2022/05/22 11:36:17;;;;;;;2.93;1.30;;;;;;;23.13;49.84;100035.47;5008937;28;20499;-76
2022/05/22 11:39:15;;;;;;;5.17;1.80;;;;;;;23.15;49.93;100029.31;5008738;28;20439;-74
2022/05/22 11:41:45;;;;;;;3.07;1.40;;;;;;;23.16;50.13;100022.31;4996684;28;20471;-74
2022/05/22 11:44:30;;;;;;;4.90;1.43;;;;;;;23.15;49.93;100009.97;4975208;28;20432;-76
2022/05/22 11:47:21;;;;;;;2.97;1.57;;;;;;;23.16;50.11;100005.84;4975590;28;20455;-76
2022/05/22 11:50:05;;;;;;;7.63;1.53;;;;;;;23.15;49.33;99992.69;4992968;28;20423;-77